Home > Products > Valid Products > TAF

000
FTUS44 KJAN 191200 AAB
TAFJAN
TAF AMD
KJAN 191206Z 1912/2012 00000KT 1/2SM FG BKN001
     FM191330 36008KT P6SM FEW250
     FM200100 01002KT P6SM SKC=



000
FTUS44 KJAN 191100 AAA
TAFGLH
TAF AMD
KGLH 191150Z 1912/2012 32003KT 1/2SM FG SCT003
     FM191330 01005KT P6SM SKC
     FM191800 03008KT P6SM FEW250
     FM200900 13002KT P6SM SKC=



000
FTUS44 KJAN 191100 AAA
TAFJAN
TAF AMD
KJAN 191132Z 1912/2012 00000KT 1SM BR BKN003
     FM191330 36008KT P6SM FEW250
     FM200100 01002KT P6SM SKC=



000
FTUS44 KJAN 191100
TAFMEI
TAF
KMEI 191120Z 1912/2012 33003KT 5SM BR FEW003
     FM191330 36009KT P6SM SKC
     FM200100 36003KT P6SM SKC
     FM200900 00000KT 4SM BR SKC=



000
FTUS44 KJAN 191100
TAFJAN
TAF
KJAN 191120Z 1912/2012 33002KT 5SM BR FEW003
     FM191330 36008KT P6SM FEW250
     FM200100 01002KT P6SM SKC=



000
FTUS44 KJAN 191100
TAFGWO
TAF
KGWO 191120Z 1912/2012 00000KT 2SM BR SKC
     FM191300 01005KT P6SM SKC
     FM191800 03008KT P6SM FEW250
     FM201000 08003KT P6SM SKC=



000
FTUS44 KJAN 191100
TAFHBG
TAF
KHBG 191120Z 1912/2012 34002KT 6SM BR SKC
     FM191400 33003KT P6SM SKC
     FM191800 01011KT P6SM SKC
     FM200100 34003KT P6SM SKC=



000
FTUS44 KJAN 191100
TAFGLH
TAF
KGLH 191120Z 1912/2012 10003KT 2SM BR SKC
     FM191300 01005KT P6SM SKC
     FM191800 03008KT P6SM FEW250
     FM200900 13002KT P6SM SKC=



000
FTUS44 KJAN 191000 AAA
TAFMEI
TAF AMD
KMEI 191052Z 1911/2006 00000KT 2SM BR SKC
     FM191300 33003KT P6SM SKC
     FM191800 36010KT P6SM FEW250=



000
FTUS44 KJAN 191000 AAB
TAFGWO
TAF AMD
KGWO 191051Z 1911/2006 00000KT 2SM BR SKC
     FM191300 01005KT P6SM SKC
     FM191800 03008KT P6SM FEW250=



000
FTUS44 KJAN 191000 AAB
TAFGLH
TAF AMD
KGLH 191049Z 1911/2006 10003KT 2SM BR SKC
     FM191300 01005KT P6SM SKC
     FM191800 03008KT P6SM FEW250=



000
FTUS44 KJAN 190900 AAA
TAFJAN
TAF AMD
KJAN 190948Z 1910/2006 05003KT 6SM BR SKC
     FM191200 33002KT P6SM SKC
     FM191800 36010KT P6SM FEW250=



000
FTUS44 KJAN 190900 AAA
TAFGWO
TAF AMD
KGWO 190948Z 1910/2006 00000KT 5SM BR SCT070
     FM191400 01005KT P6SM SKC
     FM191800 03008KT P6SM FEW250=



000
FTUS44 KJAN 190900 AAA
TAFHBG
TAF AMD
KHBG 190914Z 1909/2006 34002KT 6SM BR SKC
     FM191400 33003KT P6SM SKC
     FM191800 01011KT P6SM SKC=



000
FTUS44 KJAN 190900 AAA
TAFGLH
TAF AMD
KGLH 190914Z 1909/2006 10003KT P6SM SKC
     FM191500 01005KT P6SM SKC
     FM191800 03008KT P6SM FEW250=



000
FTUS44 KJAN 190600 AAA
TAFJAN
TAF AMD
KJAN 190626Z 1906/2006 05003KT 3SM BR SKC
      TEMPO 1907/1911 00000KT 1SM BR SKC
     FM191200 33002KT P6SM SKC
     FM191800 36010KT P6SM FEW250=



000
FTUS44 KJAN 190500
TAFJAN
TAF
KJAN 190530Z 1906/2006 05003KT P6SM SKC
     FM190800 33002KT P6SM SKC
     FM191800 36010KT P6SM FEW250=



000
FTUS44 KJAN 190500
TAFGWO
TAF
KGWO 190530Z 1906/2006 00000KT 2SM BR SKC
      TEMPO 1906/1910 00000KT 4SM BR SKC
     FM191000 00000KT 2SM BR SKC
     FM191400 01005KT P6SM SKC
     FM191800 03008KT P6SM FEW250=



000
FTUS44 KJAN 190500
TAFHBG
TAF
KHBG 190530Z 1906/2006 01004KT P6SM SCT150
     FM190900 34002KT 4SM BR SKC
     FM191100 00000KT 1 1/2SM BR SKC
     FM191400 33003KT P6SM SKC
     FM191800 01011KT P6SM SKC=



000
FTUS44 KJAN 190500
TAFGLH
TAF
KGLH 190530Z 1906/2006 11003KT P6SM SCT100
     FM190900 04002KT 4SM BR SKC
     FM191500 01005KT P6SM SKC
     FM191800 03008KT P6SM FEW250=



000
FTUS44 KJAN 190500
TAFMEI
TAF
KMEI 190530Z 1906/2006 00000KT P6SM SCT100
     FM190800 33003KT P6SM SKC
     FM191800 36010KT P6SM SKC=



000
FTUS44 KJAN 182300
TAFGWO
TAF
KGWO 182320Z 1900/1924 08003KT P6SM SCT100
     FM191500 01005KT P6SM SKC
     FM191800 03008KT P6SM FEW250=



000
FTUS44 KJAN 182300
TAFHBG
TAF
KHBG 182320Z 1900/1924 03005KT P6SM SCT015
     FM190900 34002KT 4SM BR SKC
     FM191100 00000KT 1 1/2SM BR SKC
     FM191400 33003KT P6SM SKC
     FM191800 01011KT P6SM SKC=



000
FTUS44 KJAN 182300
TAFJAN
TAF
KJAN 182320Z 1900/1924 02007KT P6SM BKN050
     FM190200 04002KT P6SM SCT100
     FM190800 33003KT P6SM SKC
     FM191800 36010KT P6SM FEW250=



000
FTUS44 KJAN 182300
TAFMEI
TAF
KMEI 182320Z 1900/1924 03009KT P6SM BKN025
     FM190100 03004KT P6SM OVC040
     FM190600 00000KT P6SM SCT100
     FM190800 33003KT P6SM SKC
     FM191800 36010KT P6SM SKC=



000
FTUS44 KJAN 182300
TAFGLH
TAF
KGLH 182320Z 1900/1924 04003KT P6SM SCT100
     FM190900 04002KT 4SM BR SKC
     FM191500 01005KT P6SM SKC
     FM191800 03008KT P6SM FEW250=



000
FTUS44 KJAN 181900 AAA
TAFHBG
TAF AMD
KHBG 181958Z 1820/1918 03008KT P6SM OVC010
     FM182100 01010G16KT P6SM VCSH OVC050
     FM190200 35003KT P6SM BKN100
     FM190800 34002KT 4SM BR SKC
     FM191000 00000KT 1 1/2SM BR SKC
     FM191400 33003KT P6SM SKC=



000
FTUS44 KJAN 181900 AAA
TAFJAN
TAF AMD
KJAN 181957Z 1820/1918 36007G15KT P6SM BKN035
     FM190200 04002KT P6SM SCT100
     FM190800 33003KT P6SM SKC=



000
FTUS44 KJAN 181700
TAFHBG
TAF
KHBG 181720Z 1818/1918 03008KT P6SM VCSH OVC007
     FM182100 01010G16KT P6SM VCSH OVC050
     FM190200 35003KT P6SM BKN100
     FM190800 34002KT 4SM BR SKC
     FM191000 00000KT 1 1/2SM BR SKC
     FM191400 33003KT P6SM SKC=



000
FTUS44 KJAN 181700
TAFMEI
TAF
KMEI 181720Z 1818/1918 03009KT P6SM VCSH OVC007
     FM182100 03010KT P6SM VCSH OVC050
     FM190100 03004KT P6SM OVC050
     FM190600 00000KT P6SM SCT100
     FM190800 33003KT P6SM SKC=



000
FTUS44 KJAN 181700
TAFGWO
TAF
KGWO 181720Z 1818/1918 VRB04KT P6SM SKC
     FM190000 08003KT P6SM SCT100
     FM191500 01005KT P6SM SKC=



000
FTUS44 KJAN 181700
TAFGLH
TAF
KGLH 181720Z 1818/1918 10007KT P6SM OVC070
     FM190100 04003KT P6SM SCT100
     FM190900 04002KT 4SM BR SKC
     FM191500 01005KT P6SM SKC=



000
FTUS44 KJAN 181700
TAFJAN
TAF
KJAN 181720Z 1818/1918 36010KT P6SM OVC015
     FM190200 04002KT P6SM SCT100
     FM190800 33003KT P6SM SKC=



000
FTUS44 KJAN 181100
TAFJAN
TAF
KJAN 181129Z 1812/1912 02005KT P6SM BKN015 BKN060
     FM181400 03009KT 4SM BR OVC015
     FM181600 04010KT P6SM SCT020 BKN040
     FM181800 03010KT P6SM VCTS BKN050CB
     FM190200 04002KT P6SM SCT100=



000
FTUS44 KJAN 181100
TAFHBG
TAF
KHBG 181129Z 1812/1912 05008KT 5SM RA BR BKN007 BKN020 OVC070
     FM181700 02011G16KT P6SM VCSH OVC015
     FM182100 01010G16KT P6SM VCSH OVC050
     FM190200 35003KT P6SM BKN100
     FM190800 34002KT 4SM BR SKC
     FM191000 00000KT 1 1/2SM BR SKC=



000
FTUS44 KJAN 181100
TAFGWO
TAF
KGWO 181129Z 1812/1912 03005KT P6SM OVC050
     FM181300 05006KT P6SM OVC025
     FM181800 06006KT P6SM VCSH OVC050
     FM190000 08003KT P6SM SCT100=



000
FTUS44 KJAN 181100
TAFGLH
TAF
KGLH 181129Z 1812/1912 01005KT P6SM OVC040
     FM181400 04008KT P6SM OVC035
     FM181800 05008KT P6SM VCTS BKN050CB
     FM190100 04003KT P6SM SCT100
     FM190900 04002KT 4SM BR SKC=



000
FTUS44 KJAN 181100
TAFMEI
TAF
KMEI 181129Z 1812/1912 04006KT 5SM -RA BR OVC010
     FM181700 04007KT P6SM VCSH OVC015
     FM182100 03010KT P6SM VCSH OVC050
     FM190100 03004KT P6SM OVC050
     FM190600 00000KT P6SM SCT100=



000
FTUS44 KJAN 180800 AAA
TAFHBG
TAF AMD
KHBG 180838Z 1809/1906 07003KT 6SM -RA BKN008
     FM181000 05003KT 5SM -RA BR OVC007
     FM181500 01010KT 6SM BR OVC035
     FM182100 02010G16KT P6SM OVC050
     FM190200 36002KT P6SM SCT050 OVC100=



000
FTUS44 KJAN 180700 AAA
TAFMEI
TAF AMD
KMEI 180753Z 1808/1906 08004KT P6SM VCSH OVC015
     FM181100 04006KT 6SM -RA BR OVC015
     FM181700 04008KT P6SM OVC035
     FM182100 03007KT P6SM OVC050
     FM190400 03003KT P6SM OVC100=



000
FTUS44 KJAN 180500
TAFGLH
TAF
KGLH 180526Z 1806/1906 03003KT P6SM VCSH BKN050
     FM181100 04005KT 4SM BR SCT035 OVC050
     FM181500 05008KT P6SM OVC035
     FM181700 03009KT P6SM BKN050
     FM182200 02006KT P6SM SKC=



000
FTUS44 KJAN 180500
TAFGWO
TAF
KGWO 180526Z 1806/1906 00000KT P6SM VCSH BKN050
     FM180900 00000KT 4SM BR OVC035
     FM181400 06006KT P6SM OVC035
     FM182000 06005KT P6SM OVC050
     FM190200 08003KT P6SM SCT100=



000
FTUS44 KJAN 180500
TAFJAN
TAF
KJAN 180526Z 1806/1906 09005KT P6SM OVC040
     FM180900 06004KT P6SM OVC035
     FM181600 04010KT P6SM OVC035
     FM182100 03007KT P6SM OVC050
     FM190300 06002KT P6SM BKN100=



000
FTUS44 KJAN 180500
TAFHBG
TAF
KHBG 180526Z 1806/1906 07003KT P6SM VCSH OVC050
     FM181000 05003KT 5SM -RA BR OVC025
     FM181500 01010KT 6SM BR OVC035
     FM182100 02010G16KT P6SM OVC050
     FM190200 36002KT P6SM SCT050 OVC100=



000
FTUS44 KJAN 180500
TAFMEI
TAF
KMEI 180526Z 1806/1906 08004KT P6SM VCSH OVC050
     FM181100 04006KT 6SM -RA BR OVC025
     FM181700 04008KT P6SM OVC035
     FM182100 03007KT P6SM OVC050
     FM190400 03003KT P6SM OVC100=



000
FTUS44 KJAN 180000 CCA
TAFHBG
TAF COR
KHBG 180012Z 1800/1824 VRB04KT 4SM HZ BKN070 OVC120
     FM180200 09004KT P6SM OVC050
     FM180500 09005KT P6SM VCSH OVC025
     FM180700 08004KT P6SM VCSH OVC015
     FM180900 06005KT 6SM SHRA OVC009
     FM181500 03008KT P6SM OVC015
     FM181800 02009KT P6SM BKN035=



000
FTUS44 KJAN 172300 CCA
TAFGWO
TAF COR
KGWO 172348Z 1800/1824 09004KT P6SM OVC250
     FM181200 05007KT P6SM OVC025
     FM181800 04007KT P6SM BKN040=



000
FTUS44 KJAN 172300
TAFJAN
TAF
KJAN 172334Z 1800/1824 10004KT P6SM SCT050 OVC250
     FM180700 08005KT P6SM OVC025
     FM180900 05008KT P6SM OVC015
     FM181800 04009KT P6SM BKN040=



000
FTUS44 KJAN 172300
TAFGWO
TAF
KGWO 172334Z 1800/1824 09004KT P6SM OVC025
     FM181200 05007KT P6SM OVC025
     FM181800 04007KT P6SM BKN040=



000
FTUS44 KJAN 172300
TAFGLH
TAF
KGLH 172334Z 1800/1824 07004KT P6SM OVC250
     FM181400 05009KT P6SM OVC025
     FM181800 02008KT P6SM BKN040=



000
FTUS44 KJAN 172300
TAFMEI
TAF
KMEI 172334Z 1800/1824 09004KT P6SM OVC250
     FM180600 07005KT P6SM OVC025
     FM180800 06008KT P6SM OVC015
     FM181900 04009KT P6SM BKN040=



000
FTUS44 KJAN 172300
TAFHBG
TAF
KHBG 172334Z 1800/1824 08004KT P6SM SCT050 OVC070
     FM180500 09005KT P6SM VCSH OVC025
     FM180700 08004KT P6SM VCSH OVC015
     FM180900 06005KT 6SM SHRA OVC009
     FM181500 03008KT P6SM OVC015
     FM181800 02009KT P6SM BKN035=



000
FTUS44 KJAN 172200 AAA
TAFHBG
TAF AMD
KHBG 172258Z 1723/1818 09005KT P6SM SCT040 OVC050
     FM180500 09005KT P6SM VCSH OVC025
     FM180700 11004KT P6SM VCSH OVC015
     FM180900 11008KT 6SM SHRA OVC009
     FM181500 03010KT P6SM OVC015=



000
FTUS44 KJAN 171700
TAFHBG
TAF
KHBG 171729Z 1718/1818 09009KT P6SM SCT040 OVC050
     FM172200 09007KT P6SM OVC025
     FM180300 11004KT P6SM OVC015
     FM180700 11008KT 6SM SHRA OVC009
     FM181500 03010KT P6SM OVC015=



000
FTUS44 KJAN 171700
TAFJAN
TAF
KJAN 171729Z 1718/1818 09009KT P6SM BKN050
     FM180100 07005KT P6SM OVC040
     FM180500 05011KT P6SM OVC015=



000
FTUS44 KJAN 171700
TAFGLH
TAF
KGLH 171729Z 1718/1818 14010KT P6SM SCT250
     FM180300 08005KT P6SM OVC040
     FM181000 05009KT P6SM OVC025=



000
FTUS44 KJAN 171700
TAFMEI
TAF
KMEI 171729Z 1718/1818 11010KT P6SM OVC045
     FM180300 08006KT P6SM OVC015
     FM180900 04009KT 6SM SHRA OVC009
     FM181500 04008KT P6SM OVC015=



000
FTUS44 KJAN 171700
TAFGWO
TAF
KGWO 171729Z 1718/1818 12009KT P6SM SCT250
     FM180300 08004KT P6SM OVC050
     FM180800 05009KT P6SM OVC025=



000
FTUS44 KJAN 171100
TAFMEI
TAF
KMEI 171139Z 1712/1812 00000KT P6SM BKN250
     FM171400 12008KT P6SM BKN100
     FM171600 11006KT P6SM OVC050
     FM180500 11006KT P6SM OVC015=



000
FTUS44 KJAN 171100
TAFJAN
TAF
KJAN 171139Z 1712/1812 14003KT P6SM BKN250
     FM171400 12008KT P6SM BKN100
     FM172000 13009KT P6SM OVC050
     FM180400 13005KT P6SM OVC015=



000
FTUS44 KJAN 171100
TAFHBG
TAF
KHBG 171139Z 1712/1812 00000KT P6SM BKN040
     FM171400 10008KT P6SM BKN025
     FM171700 12008KT P6SM BKN035
     FM180700 10006KT P6SM -SHRA OVC015
     FM181000 10004KT P6SM -SHRA OVC007=



000
FTUS44 KJAN 171100
TAFGLH
TAF
KGLH 171139Z 1712/1812 11003KT P6SM SCT250
     FM171800 14006KT P6SM BKN100
     FM172300 10004KT P6SM OVC050
     FM180800 12007KT P6SM OVC025=



000
FTUS44 KJAN 171100
TAFGWO
TAF
KGWO 171139Z 1712/1812 11003KT P6SM SCT250
     FM171800 14006KT P6SM BKN100
     FM172300 10004KT P6SM OVC050
     FM180800 12007KT P6SM OVC025=



000
FTUS44 KJAN 171100 AAA
TAFHBG
TAF AMD
KHBG 171102Z 1711/1806 10008KT P6SM OVC040
     FM171400 11010KT P6SM BKN020
     FM171700 12008KT P6SM BKN035
     FM172000 10006KT P6SM OVC050
     FM180400 10004KT P6SM OVC015=



000
FTUS44 KJAN 170500
TAFMEI
TAF
KMEI 170522Z 1706/1806 00000KT P6SM SCT250
     FM171400 12008KT P6SM BKN035
     FM171600 11006KT P6SM OVC050
     FM180500 11006KT P6SM OVC025=



000
FTUS44 KJAN 170500
TAFGLH
TAF
KGLH 170522Z 1706/1806 14004KT P6SM SCT250
     FM171600 15009KT P6SM SCT035
     FM172300 14006KT P6SM BKN100
     FM180400 10004KT P6SM OVC050=



000
FTUS44 KJAN 170500
TAFJAN
TAF
KJAN 170522Z 1706/1806 14003KT P6SM SCT250
     FM171400 12008KT P6SM BKN035
     FM172100 13009KT P6SM OVC050
     FM180200 12005KT P6SM BKN200
     FM180400 13005KT P6SM OVC015=



000
FTUS44 KJAN 170500
TAFGWO
TAF
KGWO 170522Z 1706/1806 11003KT P6SM SCT250
     FM171500 14009KT P6SM SCT035
     FM172300 14006KT P6SM BKN100
     FM180400 10004KT P6SM OVC050=



000
FTUS44 KJAN 170500
TAFHBG
TAF
KHBG 170522Z 1706/1806 00000KT P6SM SCT250
     FM171100 10008KT 5SM BR BKN007
     FM171400 11010KT P6SM BKN020
     FM171700 12008KT P6SM BKN035
     FM172000 10006KT P6SM OVC050
     FM180400 10004KT P6SM OVC015=



000
FTUS44 KJAN 162300
TAFJAN
TAF
KJAN 162331Z 1700/1724 14003KT P6SM SCT250
     FM171400 12008KT P6SM BKN035=



000
FTUS44 KJAN 162300
TAFGWO
TAF
KGWO 162331Z 1700/1724 11003KT P6SM SCT250
     FM171500 14009KT P6SM FEW030=



000
FTUS44 KJAN 162300
TAFMEI
TAF
KMEI 162331Z 1700/1724 00000KT P6SM SCT250
     FM171400 12008KT P6SM BKN035=



000
FTUS44 KJAN 162300
TAFGLH
TAF
KGLH 162331Z 1700/1724 14004KT P6SM SCT250
     FM171600 15009KT P6SM FEW030=



000
FTUS44 KJAN 162300
TAFHBG
TAF
KHBG 162331Z 1700/1724 00000KT P6SM SCT250
     FM171100 10008KT 5SM BR BKN007
     FM171400 11010KT P6SM BKN020
     FM171700 12008KT P6SM BKN035=



000
FTUS44 KJAN 161700
TAFGLH
TAF
KGLH 161720Z 1618/1718 14008KT P6SM BKN250=



000
FTUS44 KJAN 161700
TAFJAN
TAF
KJAN 161720Z 1618/1718 VRB04KT P6SM BKN250=



000
FTUS44 KJAN 161700
TAFMEI
TAF
KMEI 161720Z 1618/1718 VRB04KT P6SM BKN250=



000
FTUS44 KJAN 161700
TAFHBG
TAF
KHBG 161720Z 1618/1718 VRB04KT P6SM BKN250=



000
FTUS44 KJAN 161700
TAFGWO
TAF
KGWO 161720Z 1618/1718 09005KT P6SM BKN250=



000
FTUS44 KJAN 161400 AAA
TAFHBG
TAF AMD
KHBG 161430Z 1615/1712 08008KT P6SM SKC=



000
FTUS44 KJAN 161400 AAA
TAFMEI
TAF AMD
KMEI 161420Z 1614/1712 07008KT P6SM SKC=



    US Dept of Commerce
    National Oceanic and Atmospheric Administration
    National Weather Service
    1325 East West Highway
    Silver Spring, MD 20910
    Page Author: NWS Internet Services Team
Disclaimer
Information Quality
Credits
Glossary
Privacy Policy
Freedom of Information Act (FOIA)
About Us
Career Opportunities